createdAt,value
2019-03-27T00:01:50.464Z,103168.04
2019-03-27T00:04:23.797Z,103170.56
2019-03-27T00:06:57.155Z,103171.37
2019-03-27T00:09:30.680Z,103172.21
2019-03-27T00:12:04.037Z,103175.65
2019-03-27T00:14:38.068Z,103171.30
2019-03-27T00:17:11.564Z,103168.66
2019-03-27T00:19:44.871Z,103168.13
2019-03-27T00:22:18.465Z,103167.31
2019-03-27T00:24:51.835Z,103162.93
2019-03-27T00:27:25.195Z,103159.77
2019-03-27T00:29:58.634Z,103162.43
2019-03-27T00:32:32.241Z,103165.45
2019-03-27T00:35:06.400Z,103164.95
2019-03-27T00:37:39.836Z,103165.80
2019-03-27T00:40:13.655Z,103159.58
2019-03-27T00:42:47.490Z,103160.91
2019-03-27T00:45:26.844Z,103160.03
2019-03-27T00:47:56.247Z,103163.47
2019-03-27T00:50:29.828Z,103166.91
2019-03-27T00:53:03.208Z,103170.80
2019-03-27T00:55:38.158Z,103172.52
2019-03-27T00:58:11.594Z,103176.38
2019-03-27T01:00:48.263Z,103178.86
2019-03-27T01:03:22.039Z,103177.11
2019-03-27T01:05:55.504Z,103173.59
2019-03-27T01:08:29.165Z,103175.27
2019-03-27T01:11:02.535Z,103179.16
2019-03-27T01:13:35.951Z,103178.59
2019-03-27T01:16:09.615Z,103175.98
2019-03-27T01:18:43.120Z,103177.20
2019-03-27T01:21:16.520Z,103181.94
2019-03-27T01:23:50.048Z,103178.85
2019-03-27T01:26:23.518Z,103184.05
2019-03-27T01:28:56.808Z,103179.23
2019-03-27T01:31:30.142Z,103176.22
2019-03-27T01:34:04.089Z,103174.04
2019-03-27T01:36:37.711Z,103176.59
2019-03-27T01:39:12.839Z,103170.06
2019-03-27T01:41:46.573Z,103171.73
2019-03-27T01:44:21.594Z,103176.93
2019-03-27T01:46:55.117Z,103174.67
2019-03-27T01:49:28.541Z,103172.04
2019-03-27T01:52:02.147Z,103175.05
2019-03-27T01:54:37.034Z,103173.72
2019-03-27T01:57:10.740Z,103174.13
2019-03-27T01:59:44.142Z,103167.11
2019-03-27T02:02:18.560Z,103164.93
2019-03-27T02:04:52.077Z,103162.33
2019-03-27T02:07:25.773Z,103152.33
2019-03-27T02:09:59.157Z,103160.95
2019-03-27T02:12:32.769Z,103155.77
2019-03-27T02:15:07.798Z,103152.66
2019-03-27T02:17:41.395Z,103154.84
2019-03-27T02:20:14.702Z,103155.19
2019-03-27T02:22:49.410Z,103154.31
2019-03-27T02:25:22.612Z,103154.27
2019-03-27T02:27:56.003Z,103152.50
2019-03-27T02:30:29.481Z,103152.50
2019-03-27T02:33:02.761Z,103151.59
2019-03-27T02:35:36.086Z,103143.34
2019-03-27T02:38:09.599Z,103146.73
2019-03-27T02:40:43.073Z,103148.03
2019-03-27T02:43:16.327Z,103145.36
2019-03-27T02:45:51.216Z,103141.84
2019-03-27T02:48:24.577Z,103142.67
2019-03-27T02:50:57.854Z,103143.98
2019-03-27T02:53:31.243Z,103140.08
2019-03-27T02:56:04.901Z,103136.19
2019-03-27T02:58:38.386Z,103135.23
2019-03-27T03:01:11.602Z,103132.59
2019-03-27T03:03:45.099Z,103140.38
2019-03-27T03:06:18.529Z,103145.57
2019-03-27T03:08:52.131Z,103145.95
2019-03-27T03:11:26.025Z,103147.66
2019-03-27T03:13:59.547Z,103148.50
2019-03-27T03:16:42.284Z,103155.41
2019-03-27T03:19:08.355Z,103157.53
2019-03-27T03:21:41.756Z,103155.28
2019-03-27T03:24:15.653Z,103160.47
2019-03-27T03:26:51.249Z,103157.38
2019-03-27T03:29:24.775Z,103157.84
2019-03-27T03:31:58.272Z,103156.08
2019-03-27T03:34:32.826Z,103154.78
2019-03-27T03:37:06.438Z,103161.17
2019-03-27T03:39:39.793Z,103161.98
2019-03-27T03:42:13.147Z,103161.98
2019-03-27T03:44:46.519Z,103168.00
2019-03-27T03:47:19.828Z,103162.81
2019-03-27T03:49:53.464Z,103154.57
2019-03-27T03:52:26.847Z,103151.98
2019-03-27T03:55:00.483Z,103151.52
2019-03-27T03:57:35.015Z,103157.54
2019-03-27T04:00:08.385Z,103158.37
2019-03-27T04:02:41.941Z,103167.88
2019-03-27T04:05:18.916Z,103169.02
2019-03-27T04:07:52.280Z,103175.50
2019-03-27T04:10:26.081Z,103175.45
2019-03-27T04:12:59.406Z,103178.05
2019-03-27T04:15:32.821Z,103185.83
2019-03-27T04:18:06.399Z,103188.80
2019-03-27T04:20:39.989Z,103186.20
2019-03-27T04:23:13.386Z,103183.56
2019-03-27T04:26:08.447Z,103189.09
2019-03-27T04:28:22.074Z,103192.09
2019-03-27T04:30:55.429Z,103193.81
2019-03-27T04:33:28.851Z,103197.70
2019-03-27T04:36:02.317Z,103197.28
2019-03-27T04:38:35.794Z,103196.78
2019-03-27T04:41:09.449Z,103198.53
2019-03-27T04:43:42.997Z,103202.18
2019-03-27T04:46:16.406Z,103204.91
2019-03-27T04:48:50.015Z,103209.98
2019-03-27T04:51:23.414Z,103208.52
2019-03-27T04:53:56.781Z,103212.74
2019-03-27T04:56:30.201Z,103214.97
2019-03-27T04:59:03.477Z,103217.17
2019-03-27T05:01:36.981Z,103206.43
2019-03-27T05:04:10.495Z,103204.77
2019-03-27T05:06:43.865Z,103207.86
2019-03-27T05:09:17.309Z,103204.45
2019-03-27T05:11:50.874Z,103207.98
2019-03-27T05:14:24.882Z,103198.95
2019-03-27T05:16:58.454Z,103207.66
2019-03-27T05:19:31.807Z,103212.59
2019-03-27T05:22:05.716Z,103204.34
2019-03-27T05:24:40.666Z,103208.17
2019-03-27T05:27:14.143Z,103215.41
2019-03-27T05:29:47.736Z,103222.23
2019-03-27T05:32:21.066Z,103218.59
2019-03-27T05:34:54.575Z,103220.62
2019-03-27T05:37:28.039Z,103216.06
2019-03-27T05:40:05.296Z,103224.02
2019-03-27T05:42:38.727Z,103225.83
2019-03-27T05:45:12.096Z,103223.23
2019-03-27T05:47:58.636Z,103230.66
2019-03-27T05:50:21.061Z,103229.34
2019-03-27T05:52:54.556Z,103224.53
2019-03-27T05:55:28.267Z,103226.23
2019-03-27T05:58:01.923Z,103229.69
2019-03-27T06:00:35.152Z,103231.39
2019-03-27T06:03:08.779Z,103237.36
2019-03-27T06:05:42.285Z,103242.55
2019-03-27T06:08:15.696Z,103240.22
2019-03-27T06:10:49.250Z,103252.28
2019-03-27T06:13:22.836Z,103253.03
2019-03-27T06:15:56.189Z,103252.43
2019-03-27T06:18:30.279Z,103249.34
2019-03-27T06:21:03.792Z,103244.40
2019-03-27T06:23:37.411Z,103241.70
2019-03-27T06:26:10.772Z,103239.03
2019-03-27T06:28:44.539Z,103242.88
2019-03-27T06:31:18.063Z,103247.05
2019-03-27T06:33:51.580Z,103246.53
2019-03-27T06:36:25.003Z,103242.47
2019-03-27T06:38:58.476Z,103246.83
2019-03-27T06:41:32.166Z,103247.13
2019-03-27T06:44:06.077Z,103251.38
2019-03-27T06:46:39.878Z,103257.86
2019-03-27T06:49:14.957Z,103261.92
2019-03-27T06:51:48.676Z,103268.33
2019-03-27T06:54:22.755Z,103275.19
2019-03-27T06:56:57.202Z,103265.62
2019-03-27T06:59:30.991Z,103264.64
2019-03-27T07:02:04.411Z,103269.67
2019-03-27T07:04:38.727Z,103266.19
2019-03-27T07:07:14.840Z,103262.43
2019-03-27T07:09:52.274Z,103266.30
2019-03-27T07:12:27.193Z,103263.98
2019-03-27T07:15:00.969Z,103262.53
2019-03-27T07:17:34.408Z,103264.30
2019-03-27T07:20:08.304Z,103259.05
2019-03-27T07:22:42.064Z,103264.50
2019-03-27T07:25:15.686Z,103265.73
2019-03-27T07:27:49.270Z,103268.94
2019-03-27T07:30:23.206Z,103267.56
2019-03-27T07:32:56.719Z,103269.08
2019-03-27T07:35:30.185Z,103261.80
2019-03-27T07:38:03.722Z,103262.15
2019-03-27T07:40:37.692Z,103264.86
2019-03-27T07:43:12.981Z,103270.77
2019-03-27T07:45:46.873Z,103273.47
2019-03-27T07:48:20.873Z,103273.02
2019-03-27T07:50:54.441Z,103266.55
2019-03-27T07:53:29.546Z,103261.34
2019-03-27T07:56:03.308Z,103256.73
2019-03-27T07:58:36.905Z,103262.84
2019-03-27T08:01:11.236Z,103263.77
2019-03-27T08:03:46.157Z,103257.71
2019-03-27T08:06:20.165Z,103262.66
2019-03-27T08:08:55.105Z,103255.94
2019-03-27T08:11:29.111Z,103266.45
2019-03-27T08:14:04.299Z,103274.22
2019-03-27T08:16:42.208Z,103272.53
2019-03-27T08:19:18.705Z,103269.64
2019-03-27T08:21:54.106Z,103272.02
2019-03-27T08:24:30.282Z,103274.69
2019-03-27T08:27:03.796Z,103272.57
2019-03-27T08:29:37.404Z,103274.20
2019-03-27T08:32:11.904Z,103271.85
2019-03-27T08:34:45.801Z,103277.45
2019-03-27T08:37:19.206Z,103279.77
2019-03-27T08:39:53.065Z,103289.16
2019-03-27T08:42:27.605Z,103295.50
2019-03-27T08:45:01.497Z,103297.09
2019-03-27T08:47:36.247Z,103291.43
2019-03-27T08:50:10.450Z,103296.18
2019-03-27T08:52:44.604Z,103292.95
2019-03-27T08:55:18.100Z,103290.10
2019-03-27T08:57:52.044Z,103297.70
2019-03-27T09:00:40.976Z,103296.64
2019-03-27T09:03:16.012Z,103304.20
2019-03-27T09:05:49.502Z,103299.28
2019-03-27T09:08:23.096Z,103303.95
2019-03-27T09:10:56.599Z,103298.92
2019-03-27T09:13:30.434Z,103300.44
2019-03-27T09:16:03.928Z,103298.08
2019-03-27T09:18:37.765Z,103300.79
2019-03-27T09:21:11.106Z,103298.16
2019-03-27T09:23:46.335Z,103308.80
2019-03-27T09:26:19.693Z,103306.66
2019-03-27T09:28:53.038Z,103308.88
2019-03-27T09:31:27.558Z,103315.45
2019-03-27T09:34:00.965Z,103324.70
2019-03-27T09:36:34.280Z,103317.91
2019-03-27T09:39:08.457Z,103317.24
2019-03-27T09:41:41.862Z,103324.13
2019-03-27T09:44:15.232Z,103322.88
2019-03-27T09:46:48.494Z,103326.95
2019-03-27T09:49:21.833Z,103327.76
2019-03-27T09:51:55.350Z,103325.86
2019-03-27T09:54:28.817Z,103336.34
2019-03-27T09:57:02.368Z,103336.76
2019-03-27T09:59:35.720Z,103338.02
2019-03-27T10:02:09.045Z,103335.91
2019-03-27T10:04:42.748Z,103338.66
2019-03-27T10:07:16.343Z,103342.98
2019-03-27T10:09:50.815Z,103339.59
2019-03-27T10:12:24.188Z,103341.61
2019-03-27T10:14:57.854Z,103344.95
2019-03-27T10:17:31.333Z,103339.98
2019-03-27T10:20:05.024Z,103342.44
2019-03-27T10:22:38.324Z,103343.57
2019-03-27T10:25:11.814Z,103341.01
2019-03-27T10:27:44.943Z,103345.44
2019-03-27T10:30:18.359Z,103345.86
2019-03-27T10:32:51.840Z,103343.08
2019-03-27T10:35:25.419Z,103338.52
2019-03-27T10:37:59.124Z,103334.08
2019-03-27T10:40:32.720Z,103330.14
2019-03-27T10:43:06.056Z,103331.97
2019-03-27T10:45:39.575Z,103330.45
2019-03-27T10:48:12.899Z,103330.91
2019-03-27T10:50:46.264Z,103336.19
2019-03-27T10:53:19.574Z,103332.33
2019-03-27T10:55:52.909Z,103340.02
2019-03-27T10:58:26.320Z,103338.06
2019-03-27T11:00:59.643Z,103337.52
2019-03-27T11:03:33.052Z,103339.52
2019-03-27T11:06:06.367Z,103338.42
2019-03-27T11:08:40.035Z,103339.84
2019-03-27T11:11:13.362Z,103342.34
2019-03-27T11:13:46.682Z,103340.48
2019-03-27T11:16:20.007Z,103343.17
2019-03-27T11:18:53.574Z,103341.85
2019-03-27T11:21:27.122Z,103346.91
2019-03-27T11:24:02.117Z,103353.13
2019-03-27T11:26:35.476Z,103347.97
2019-03-27T11:29:10.436Z,103339.39
2019-03-27T11:31:44.142Z,103338.06
2019-03-27T11:34:17.442Z,103334.69
2019-03-27T11:36:50.780Z,103338.26
2019-03-27T11:39:24.835Z,103341.14
2019-03-27T11:42:00.779Z,103331.61
2019-03-27T11:44:33.705Z,103337.23
2019-03-27T11:47:07.081Z,103332.73
2019-03-27T11:49:40.474Z,103333.69
2019-03-27T11:52:13.966Z,103335.94
2019-03-27T11:54:47.769Z,103332.40
2019-03-27T11:57:21.219Z,103335.11
2019-03-27T11:59:54.792Z,103334.30
2019-03-27T12:02:28.687Z,103335.11
2019-03-27T12:05:02.291Z,103326.91
2019-03-27T12:07:35.710Z,103333.38
2019-03-27T12:10:10.195Z,103330.71
2019-03-27T12:12:43.695Z,103324.20
2019-03-27T12:15:20.173Z,103223.74
2019-03-27T12:17:54.053Z,103331.73
2019-03-27T12:20:27.366Z,103326.00
2019-03-27T12:23:00.783Z,103323.40
2019-03-27T12:25:34.341Z,103320.73
2019-03-27T12:28:07.777Z,103323.29
2019-03-27T12:30:41.456Z,103318.13
2019-03-27T12:33:14.786Z,103321.14
2019-03-27T12:35:49.215Z,103319.28
2019-03-27T12:38:22.549Z,103317.83
2019-03-27T12:40:55.896Z,103310.42
2019-03-27T12:43:29.209Z,103311.57
2019-03-27T12:46:02.751Z,103309.28
2019-03-27T12:48:36.249Z,103309.73
2019-03-27T12:51:13.126Z,103306.75
2019-03-27T12:53:44.819Z,103311.11
2019-03-27T12:56:18.349Z,103312.91
2019-03-27T12:58:51.967Z,103313.41
2019-03-27T13:01:25.406Z,103310.38
2019-03-27T13:03:59.042Z,103318.29
2019-03-27T13:06:32.572Z,103312.67
2019-03-27T13:09:06.831Z,103315.23
2019-03-27T13:11:40.347Z,103315.23
2019-03-27T13:14:13.483Z,103318.75
2019-03-27T13:16:46.846Z,103312.70
2019-03-27T13:19:20.179Z,103314.00
2019-03-27T13:21:53.627Z,103322.23
2019-03-27T13:24:27.141Z,103325.67
2019-03-27T13:27:00.821Z,103327.85
2019-03-27T13:29:34.158Z,103322.61
2019-03-27T13:32:07.589Z,103322.13
2019-03-27T13:34:40.964Z,103319.06
2019-03-27T13:37:14.251Z,103317.23
2019-03-27T13:39:47.607Z,103325.03
2019-03-27T13:42:21.017Z,103326.83
2019-03-27T13:44:54.554Z,103325.84
2019-03-27T13:47:28.473Z,103326.88
2019-03-27T13:50:01.823Z,103319.70
2019-03-27T13:52:35.159Z,103320.30
2019-03-27T13:55:08.792Z,103313.66
2019-03-27T13:57:42.133Z,103316.67
2019-03-27T14:00:15.958Z,103318.13
2019-03-27T14:02:49.672Z,103304.78
2019-03-27T14:05:24.847Z,103304.17
2019-03-27T14:07:58.241Z,103302.78
2019-03-27T14:10:31.558Z,103301.31
2019-03-27T14:13:04.936Z,103303.46
2019-03-27T14:15:38.332Z,103299.80
2019-03-27T14:18:11.855Z,103312.70
2019-03-27T14:20:45.172Z,103307.31
2019-03-27T14:23:18.850Z,103310.48
2019-03-27T14:25:52.275Z,103312.44
2019-03-27T14:28:25.640Z,103315.17
2019-03-27T14:30:59.071Z,103317.95
2019-03-27T14:33:32.406Z,103314.52
2019-03-27T14:36:05.815Z,103307.69
2019-03-27T14:38:39.133Z,103210.80
2019-03-27T14:41:12.472Z,103313.03
2019-03-27T14:43:45.921Z,103303.52
2019-03-27T14:46:19.460Z,103306.67
2019-03-27T14:48:52.777Z,103300.63
2019-03-27T14:51:26.346Z,103304.11
2019-03-27T14:53:59.796Z,103308.92
2019-03-27T14:56:33.191Z,103310.65
2019-03-27T14:59:06.702Z,103311.14
2019-03-27T15:01:41.024Z,103308.98
2019-03-27T15:04:14.543Z,103312.34
2019-03-27T15:06:47.965Z,103308.89
2019-03-27T15:09:21.444Z,103309.83
2019-03-27T15:11:54.893Z,103311.89
2019-03-27T15:14:28.206Z,103319.70
2019-03-27T15:17:01.597Z,103317.95
2019-03-27T15:19:34.832Z,103317.75
2019-03-27T15:22:21.644Z,103311.27
2019-03-27T15:24:44.449Z,103309.03
2019-03-27T15:27:19.183Z,103315.14
2019-03-27T15:29:52.643Z,103322.47
2019-03-27T15:32:26.082Z,103320.22
2019-03-27T15:34:59.873Z,103310.33
2019-03-27T15:37:34.009Z,103312.02
2019-03-27T15:40:07.664Z,103313.22
2019-03-27T15:42:41.884Z,103314.98
2019-03-27T15:45:15.833Z,103312.80
2019-03-27T15:47:49.230Z,103310.62
2019-03-27T15:50:22.600Z,103310.20
2019-03-27T15:52:55.990Z,103311.92
2019-03-27T15:55:29.691Z,103309.31
2019-03-27T15:58:03.489Z,103224.20
2019-03-27T16:00:37.170Z,103316.19
2019-03-27T16:03:10.637Z,103320.88
2019-03-27T16:05:44.286Z,103316.55
2019-03-27T16:08:17.879Z,103317.81
2019-03-27T16:10:51.345Z,103322.95
2019-03-27T16:13:25.140Z,103324.22
2019-03-27T16:15:58.611Z,103327.28
2019-03-27T16:18:32.128Z,103329.30
2019-03-27T16:21:05.453Z,103333.23
2019-03-27T16:23:38.837Z,103328.80
2019-03-27T16:26:13.823Z,103327.08
2019-03-27T16:28:47.231Z,103339.16
2019-03-27T16:31:20.777Z,103336.94
2019-03-27T16:33:54.227Z,103336.48
2019-03-27T16:36:28.117Z,103338.23
2019-03-27T16:39:01.755Z,103340.84
2019-03-27T16:41:38.070Z,103341.19
2019-03-27T16:44:11.894Z,103338.17
2019-03-27T16:46:46.628Z,103342.81
2019-03-27T16:49:20.118Z,103341.09
2019-03-27T16:51:56.588Z,103342.64
2019-03-27T16:54:31.031Z,103344.92
2019-03-27T16:57:04.582Z,103353.58
2019-03-27T16:59:38.033Z,103342.25
2019-03-27T17:02:11.467Z,103347.91
2019-03-27T17:04:45.212Z,103280.36
2019-03-27T17:07:18.445Z,103343.41
2019-03-27T17:09:51.913Z,103342.19
2019-03-27T17:12:25.820Z,103240.80
2019-03-27T17:15:00.557Z,103349.15
2019-03-27T17:17:34.269Z,103339.51
2019-03-27T17:20:11.099Z,103337.33
2019-03-27T17:22:45.556Z,103347.31
2019-03-27T17:25:19.379Z,103350.20
2019-03-27T17:27:55.538Z,103356.36
2019-03-27T17:30:27.716Z,103357.48
2019-03-27T17:33:01.656Z,103351.92
2019-03-27T17:35:35.703Z,103357.16
2019-03-27T17:38:10.976Z,103362.02
2019-03-27T17:40:44.459Z,103354.52
2019-03-27T17:43:18.095Z,103357.59
2019-03-27T17:45:51.507Z,103349.21
2019-03-27T17:48:25.091Z,103356.81
2019-03-27T17:50:58.521Z,103361.63
2019-03-27T17:53:32.358Z,103364.73
2019-03-27T17:56:06.940Z,103366.70
2019-03-27T17:58:40.468Z,103364.16
2019-03-27T18:01:13.996Z,103368.52
2019-03-27T18:03:47.882Z,103372.50
2019-03-27T18:06:22.924Z,103375.14
2019-03-27T18:08:56.753Z,103383.05
2019-03-27T18:11:30.525Z,103380.38
2019-03-27T18:14:03.952Z,103377.78
2019-03-27T18:16:37.824Z,103376.86
2019-03-27T18:19:12.803Z,103382.06
2019-03-27T18:21:52.427Z,103382.98
2019-03-27T18:24:26.317Z,103379.42
2019-03-27T18:26:59.833Z,103379.89
2019-03-27T18:29:33.382Z,103378.55
2019-03-27T18:32:06.932Z,103379.85
2019-03-27T18:34:40.935Z,103379.39
2019-03-27T18:37:15.021Z,103379.67
2019-03-27T18:39:48.725Z,103387.09
2019-03-27T18:42:23.388Z,103378.37
2019-03-27T18:44:58.185Z,103376.64
2019-03-27T18:47:32.236Z,103377.88
2019-03-27T18:50:06.198Z,103378.26
2019-03-27T18:52:41.237Z,103384.69
2019-03-27T18:55:25.777Z,103380.33
2019-03-27T18:57:59.966Z,103387.22
2019-03-27T19:00:25.794Z,103383.24
2019-03-27T19:02:59.367Z,103387.14
2019-03-27T19:05:32.579Z,103390.13
2019-03-27T19:08:06.050Z,103387.53
2019-03-27T19:10:39.368Z,103391.40
2019-03-27T19:13:12.807Z,103399.23
2019-03-27T19:15:46.103Z,103397.90
2019-03-27T19:18:19.436Z,103394.65
2019-03-27T19:20:54.117Z,103398.86
2019-03-27T19:23:28.928Z,103408.39
2019-03-27T19:26:02.471Z,103350.52
2019-03-27T19:28:35.778Z,103406.67
2019-03-27T19:31:10.026Z,103413.24
2019-03-27T19:33:43.688Z,103420.05
2019-03-27T19:36:16.895Z,103426.59
2019-03-27T19:38:50.170Z,103430.50
2019-03-27T19:41:23.648Z,103425.30
2019-03-27T19:43:57.072Z,103427.78
2019-03-27T19:46:30.744Z,103433.94
2019-03-27T19:49:04.586Z,103429.51
2019-03-27T19:51:38.053Z,103429.09
2019-03-27T19:54:26.502Z,103428.62
2019-03-27T19:56:53.041Z,103427.78
2019-03-27T19:59:25.649Z,103421.66
2019-03-27T20:01:59.277Z,103429.01
2019-03-27T20:04:33.170Z,103429.89
2019-03-27T20:07:07.579Z,103430.69
2019-03-27T20:09:40.959Z,103432.33
2019-03-27T20:12:14.362Z,103428.39
2019-03-27T20:14:47.761Z,103432.25
2019-03-27T20:17:21.246Z,103433.93
2019-03-27T20:19:54.597Z,103429.56
2019-03-27T20:22:27.944Z,103433.93
2019-03-27T20:25:02.593Z,103427.81
2019-03-27T20:27:36.024Z,103434.31
2019-03-27T20:30:14.922Z,103436.80
2019-03-27T20:32:48.537Z,103437.72
2019-03-27T20:35:23.039Z,103434.39
2019-03-27T20:37:56.676Z,103433.29
2019-03-27T20:40:32.222Z,103433.48
2019-03-27T20:43:05.623Z,103437.23
2019-03-27T20:45:39.052Z,103427.52
2019-03-27T20:48:12.361Z,103428.27
2019-03-27T20:50:46.050Z,103427.34
2019-03-27T20:53:19.362Z,103430.59
2019-03-27T20:55:52.712Z,103430.77
2019-03-27T20:58:26.159Z,103427.39
2019-03-27T21:00:59.595Z,103426.23
2019-03-27T21:03:32.871Z,103431.47
2019-03-27T21:06:06.569Z,103430.20
2019-03-27T21:08:39.879Z,103428.48
2019-03-27T21:11:13.554Z,103427.64
2019-03-27T21:13:47.252Z,103431.51
2019-03-27T21:16:21.014Z,103442.03
2019-03-27T21:18:54.236Z,103434.25
2019-03-27T21:21:27.640Z,103437.21
2019-03-27T21:24:01.206Z,103437.18
2019-03-27T21:26:34.608Z,103440.77
2019-03-27T21:29:07.938Z,103441.12
2019-03-27T21:31:41.448Z,103438.90
2019-03-27T21:34:14.808Z,103442.73
2019-03-27T21:36:48.167Z,103440.41
2019-03-27T21:39:21.587Z,103444.66
2019-03-27T21:41:54.980Z,103447.69
2019-03-27T21:44:28.349Z,103444.20
2019-03-27T21:47:01.728Z,103447.58
2019-03-27T21:49:34.928Z,103444.02
2019-03-27T21:52:08.289Z,103449.27
2019-03-27T21:54:41.641Z,103450.42
2019-03-27T21:57:15.534Z,103448.23
2019-03-27T21:59:49.206Z,103442.96
2019-03-27T22:02:22.767Z,103444.53
2019-03-27T22:04:56.223Z,103446.72
2019-03-27T22:07:29.737Z,103445.11
2019-03-27T22:10:06.890Z,103443.27
2019-03-27T22:12:40.255Z,103439.86
2019-03-27T22:15:13.947Z,103437.57
2019-03-27T22:17:47.604Z,103440.55
2019-03-27T22:20:21.342Z,103443.89
2019-03-27T22:22:54.947Z,103442.59
2019-03-27T22:25:36.003Z,103443.47
2019-03-27T22:28:03.665Z,103449.73
2019-03-27T22:30:37.374Z,103444.84
2019-03-27T22:33:10.736Z,103447.91
2019-03-27T22:35:44.124Z,103442.77
2019-03-27T22:38:17.825Z,103450.44
2019-03-27T22:40:51.407Z,103437.95
2019-03-27T22:43:26.791Z,103443.54
2019-03-27T22:46:01.471Z,103439.75
2019-03-27T22:48:35.123Z,103440.55
2019-03-27T22:51:08.509Z,103449.73
2019-03-27T22:53:42.029Z,103448.55
2019-03-27T22:56:15.414Z,103449.05
2019-03-27T22:58:48.964Z,103445.18
2019-03-27T23:01:24.460Z,103445.11
2019-03-27T23:03:58.299Z,103443.03
2019-03-27T23:06:33.542Z,103451.80
2019-03-27T23:09:07.303Z,103451.30
2019-03-27T23:11:41.862Z,103451.27
2019-03-27T23:14:15.264Z,103451.69
2019-03-27T23:16:48.826Z,103450.34
2019-03-27T23:19:22.725Z,103445.11
2019-03-27T23:21:56.067Z,103452.91
2019-03-27T23:24:29.746Z,103455.06
2019-03-27T23:27:03.259Z,103458.89
2019-03-27T23:29:37.132Z,103464.05
2019-03-27T23:32:10.814Z,103462.72
2019-03-27T23:34:44.296Z,103463.06
2019-03-27T23:37:17.769Z,103463.87
2019-03-27T23:39:51.351Z,103459.92
2019-03-27T23:42:26.494Z,103458.13
2019-03-27T23:44:59.973Z,103457.20
2019-03-27T23:47:33.694Z,103460.58
2019-03-27T23:50:08.744Z,103451.93
2019-03-27T23:52:42.313Z,103456.22
2019-03-27T23:55:15.681Z,103456.59
2019-03-27T23:57:50.661Z,103454.30
